GLD1043 SBRJ-SBSP
Flight info
| Callsign | GLD1043 |
|---|---|
| Flight time | 0h 43m |
| Altitude | 32000 |
| Route | NAXOP UZ45 IBDAL |
| Aircraft | B738/M-SDE2E3FGHIRWXY/LB1 |
Departure
| Time | 2026-05-04 21:37 |
|---|---|
| Airport | Santos Dumont Airport (SBRJ) |
Arrival
| Time | 2026-05-04 22:21 |
|---|---|
| Airport | Congonhas–Deputado Freitas Nobre Airport (SBSP) |
| Time | Latitude | Longitude | Altitude | Speed | Heading |
|---|---|---|---|---|---|
| 2026-05-04 21:18 | -22.91169 | -43.16584 | 24 ft | 0 kts | 266° |
| 2026-05-04 21:30 | -22.91169 | -43.16583 | 21 ft | 1 kts | 266° |
| 2026-05-04 21:30 | -22.91168 | -43.16562 | 24 ft | 4 kts | 267° |
| 2026-05-04 21:30 | -22.91167 | -43.16537 | 25 ft | 4 kts | 287° |
| 2026-05-04 21:30 | -22.91178 | -43.16519 | 23 ft | 4 kts | 337° |
| 2026-05-04 21:31 | -22.91195 | -43.16514 | 21 ft | 1 kts | 356° |
| 2026-05-04 21:33 | -22.91188 | -43.16515 | 24 ft | 4 kts | 356° |
| 2026-05-04 21:33 | -22.91125 | -43.16521 | 21 ft | 13 kts | 348° |
| 2026-05-04 21:33 | -22.91041 | -43.16536 | 23 ft | 11 kts | 356° |
| 2026-05-04 21:34 | -22.90962 | -43.16542 | 24 ft | 12 kts | 356° |
| 2026-05-04 21:34 | -22.90885 | -43.16547 | 21 ft | 11 kts | 356° |
| 2026-05-04 21:34 | -22.90810 | -43.16546 | 21 ft | 11 kts | 10° |
| 2026-05-04 21:34 | -22.90738 | -43.16543 | 21 ft | 10 kts | 358° |
| 2026-05-04 21:35 | -22.90663 | -43.16547 | 22 ft | 11 kts | 355° |
| 2026-05-04 21:35 | -22.90590 | -43.16553 | 22 ft | 10 kts | 356° |
| 2026-05-04 21:35 | -22.90518 | -43.16553 | 21 ft | 10 kts | 20° |
| 2026-05-04 21:35 | -22.90494 | -43.16486 | 21 ft | 10 kts | 83° |
| 2026-05-04 21:36 | -22.90489 | -43.16414 | 23 ft | 10 kts | 81° |
| 2026-05-04 21:36 | -22.90467 | -43.16350 | 25 ft | 8 kts | 69° |
| 2026-05-04 21:36 | -22.90479 | -43.16320 | 25 ft | 4 kts | 167° |
| 2026-05-04 21:36 | -22.90497 | -43.16319 | 23 ft | 15 kts | 176° |
| 2026-05-04 21:37 | -22.90945 | -43.16289 | 22 ft | 111 kts | 176° |
| 2026-05-04 21:37 | -22.91958 | -43.16213 | 249 ft | 168 kts | 175° |
| 2026-05-04 21:37 | -22.93099 | -43.16059 | 1240 ft | 170 kts | 152° |
| 2026-05-04 21:37 | -22.93937 | -43.15172 | 2171 ft | 173 kts | 125° |
| 2026-05-04 21:38 | -22.94871 | -43.14134 | 2625 ft | 206 kts | 132° |
| 2026-05-04 21:38 | -22.95946 | -43.13056 | 3198 ft | 220 kts | 135° |
| 2026-05-04 21:38 | -22.97085 | -43.11871 | 3621 ft | 237 kts | 132° |
| 2026-05-04 21:38 | -22.98315 | -43.10621 | 4215 ft | 251 kts | 144° |
| 2026-05-04 21:39 | -22.99958 | -43.10005 | 4965 ft | 252 kts | 183° |
| 2026-05-04 21:39 | -23.01656 | -43.10482 | 5486 ft | 260 kts | 218° |
| 2026-05-04 21:39 | -23.03064 | -43.11736 | 6249 ft | 265 kts | 223° |
| 2026-05-04 21:39 | -23.04477 | -43.13040 | 7115 ft | 266 kts | 222° |
| 2026-05-04 21:40 | -23.05889 | -43.14326 | 8059 ft | 268 kts | 221° |
| 2026-05-04 21:40 | -23.07338 | -43.15631 | 8892 ft | 271 kts | 220° |
| 2026-05-04 21:40 | -23.08823 | -43.16934 | 9765 ft | 275 kts | 220° |
| 2026-05-04 21:40 | -23.10327 | -43.18243 | 10525 ft | 282 kts | 220° |
| 2026-05-04 21:41 | -23.11920 | -43.19629 | 10802 ft | 306 kts | 220° |
| 2026-05-04 21:41 | -23.13647 | -43.21133 | 10963 ft | 331 kts | 219° |
| 2026-05-04 21:41 | -23.15497 | -43.22743 | 11299 ft | 347 kts | 220° |
| 2026-05-04 21:41 | -23.17419 | -43.24417 | 11779 ft | 357 kts | 220° |
| 2026-05-04 21:42 | -23.19341 | -43.26091 | 12731 ft | 353 kts | 219° |
| 2026-05-04 21:42 | -23.21240 | -43.27746 | 13488 ft | 356 kts | 220° |
| 2026-05-04 21:42 | -23.23180 | -43.29438 | 14096 ft | 361 kts | 220° |
| 2026-05-04 21:42 | -23.25157 | -43.31166 | 14626 ft | 367 kts | 220° |
| 2026-05-04 21:43 | -23.27170 | -43.32924 | 15103 ft | 372 kts | 220° |
| 2026-05-04 21:43 | -23.29172 | -43.34672 | 15855 ft | 372 kts | 220° |
| 2026-05-04 21:43 | -23.31200 | -43.36445 | 16457 ft | 375 kts | 221° |
| 2026-05-04 21:43 | -23.33047 | -43.38464 | 16845 ft | 380 kts | 237° |
| 2026-05-04 21:44 | -23.34242 | -43.41033 | 17337 ft | 383 kts | 252° |
| 2026-05-04 21:44 | -23.34945 | -43.43835 | 17958 ft | 384 kts | 256° |
| 2026-05-04 21:44 | -23.35587 | -43.46666 | 18567 ft | 385 kts | 257° |
| 2026-05-04 21:44 | -23.36221 | -43.49510 | 19020 ft | 389 kts | 257° |
| 2026-05-04 21:45 | -23.36868 | -43.52386 | 19440 ft | 393 kts | 257° |
| 2026-05-04 21:45 | -23.37526 | -43.55280 | 19901 ft | 395 kts | 256° |
| 2026-05-04 21:45 | -23.38189 | -43.58157 | 20407 ft | 397 kts | 256° |
| 2026-05-04 21:45 | -23.38867 | -43.61077 | 20878 ft | 399 kts | 256° |
| 2026-05-04 21:46 | -23.39553 | -43.64022 | 21320 ft | 402 kts | 256° |
| 2026-05-04 21:46 | -23.40245 | -43.66987 | 21758 ft | 405 kts | 256° |
| 2026-05-04 21:46 | -23.40940 | -43.69966 | 22205 ft | 407 kts | 256° |
| 2026-05-04 21:46 | -23.41640 | -43.72969 | 22644 ft | 410 kts | 256° |
| 2026-05-04 21:47 | -23.42342 | -43.75984 | 23068 ft | 412 kts | 256° |
| 2026-05-04 21:47 | -23.43048 | -43.79019 | 23502 ft | 415 kts | 256° |
| 2026-05-04 21:47 | -23.43757 | -43.82074 | 23889 ft | 417 kts | 255° |
| 2026-05-04 21:47 | -23.44470 | -43.85144 | 24248 ft | 419 kts | 256° |
| 2026-05-04 21:48 | -23.45184 | -43.88221 | 24600 ft | 420 kts | 256° |
| 2026-05-04 21:48 | -23.45900 | -43.91315 | 24956 ft | 422 kts | 256° |
| 2026-05-04 21:48 | -23.46619 | -43.94420 | 25312 ft | 423 kts | 256° |
| 2026-05-04 21:48 | -23.47340 | -43.97552 | 25655 ft | 425 kts | 256° |
| 2026-05-04 21:49 | -23.48059 | -44.00684 | 25993 ft | 427 kts | 256° |
| 2026-05-04 21:49 | -23.48780 | -44.03824 | 26320 ft | 429 kts | 256° |
| 2026-05-04 21:49 | -23.49494 | -44.06938 | 26634 ft | 430 kts | 256° |
| 2026-05-04 21:49 | -23.50220 | -44.10105 | 26952 ft | 432 kts | 256° |
| 2026-05-04 21:50 | -23.50950 | -44.13290 | 27272 ft | 433 kts | 256° |
| 2026-05-04 21:50 | -23.51682 | -44.16490 | 27580 ft | 435 kts | 256° |
| 2026-05-04 21:50 | -23.52418 | -44.19700 | 27890 ft | 436 kts | 256° |
| 2026-05-04 21:50 | -23.53155 | -44.22907 | 28270 ft | 436 kts | 256° |
| 2026-05-04 21:51 | -23.53886 | -44.26095 | 28769 ft | 432 kts | 256° |
| 2026-05-04 21:51 | -23.54612 | -44.29261 | 29325 ft | 429 kts | 256° |
| 2026-05-04 21:51 | -23.55332 | -44.32403 | 29823 ft | 426 kts | 256° |
| 2026-05-04 21:51 | -23.56048 | -44.35537 | 30250 ft | 426 kts | 256° |
| 2026-05-04 21:52 | -23.56753 | -44.38625 | 30630 ft | 424 kts | 256° |
| 2026-05-04 21:52 | -23.57464 | -44.41738 | 31058 ft | 422 kts | 256° |
| 2026-05-04 21:52 | -23.58168 | -44.44828 | 31493 ft | 419 kts | 256° |
| 2026-05-04 21:52 | -23.58867 | -44.47900 | 31887 ft | 417 kts | 256° |
| 2026-05-04 21:53 | -23.59567 | -44.50974 | 32159 ft | 418 kts | 256° |
| 2026-05-04 21:53 | -23.60975 | -44.57173 | 32157 ft | 421 kts | 256° |
| 2026-05-04 21:54 | -23.62374 | -44.63344 | 32140 ft | 416 kts | 256° |
| 2026-05-04 21:54 | -23.63759 | -44.69468 | 32161 ft | 416 kts | 255° |
| 2026-05-04 21:55 | -23.65144 | -44.75599 | 32157 ft | 416 kts | 256° |
| 2026-05-04 21:55 | -23.66517 | -44.81692 | 32153 ft | 417 kts | 256° |
| 2026-05-04 21:56 | -23.67900 | -44.87840 | 32156 ft | 417 kts | 255° |
| 2026-05-04 21:56 | -23.69282 | -44.93994 | 32158 ft | 417 kts | 256° |
| 2026-05-04 21:57 | -23.70660 | -45.00148 | 32161 ft | 418 kts | 255° |
| 2026-05-04 21:57 | -23.72032 | -45.06281 | 32014 ft | 420 kts | 255° |
| 2026-05-04 21:57 | -23.72727 | -45.09393 | 31562 ft | 419 kts | 256° |
| 2026-05-04 21:58 | -23.73411 | -45.12463 | 31026 ft | 415 kts | 256° |
| 2026-05-04 21:58 | -23.74090 | -45.15509 | 30544 ft | 411 kts | 256° |
| 2026-05-04 21:58 | -23.74762 | -45.18529 | 30022 ft | 407 kts | 256° |
| 2026-05-04 21:58 | -23.75427 | -45.21516 | 29467 ft | 403 kts | 256° |
| 2026-05-04 21:59 | -23.76084 | -45.24473 | 28929 ft | 399 kts | 256° |
| 2026-05-04 21:59 | -23.76735 | -45.27395 | 28434 ft | 394 kts | 256° |
| 2026-05-04 21:59 | -23.77379 | -45.30290 | 27927 ft | 390 kts | 256° |
| 2026-05-04 21:59 | -23.78015 | -45.33148 | 27452 ft | 386 kts | 256° |
| 2026-05-04 22:00 | -23.78646 | -45.35984 | 26960 ft | 383 kts | 256° |
| 2026-05-04 22:00 | -23.79272 | -45.38806 | 26484 ft | 380 kts | 256° |
| 2026-05-04 22:00 | -23.79833 | -45.41578 | 26044 ft | 377 kts | 261° |
| 2026-05-04 22:00 | -23.80079 | -45.44411 | 25704 ft | 374 kts | 265° |
| 2026-05-04 22:01 | -23.80209 | -45.47283 | 25348 ft | 384 kts | 266° |
| 2026-05-04 22:01 | -23.80315 | -45.50223 | 24960 ft | 391 kts | 266° |
| 2026-05-04 22:01 | -23.80426 | -45.53187 | 24580 ft | 390 kts | 266° |
| 2026-05-04 22:01 | -23.80547 | -45.56136 | 24203 ft | 386 kts | 266° |
| 2026-05-04 22:02 | -23.80679 | -45.59057 | 23825 ft | 383 kts | 266° |
| 2026-05-04 22:02 | -23.80817 | -45.61957 | 23401 ft | 381 kts | 265° |
| 2026-05-04 22:02 | -23.80959 | -45.64830 | 23007 ft | 378 kts | 265° |
| 2026-05-04 22:02 | -23.81102 | -45.67684 | 22627 ft | 375 kts | 265° |
| 2026-05-04 22:03 | -23.81245 | -45.70517 | 22258 ft | 373 kts | 266° |
| 2026-05-04 22:03 | -23.81388 | -45.73332 | 21897 ft | 371 kts | 266° |
| 2026-05-04 22:03 | -23.81529 | -45.76142 | 21549 ft | 370 kts | 266° |
| 2026-05-04 22:03 | -23.81670 | -45.78941 | 21204 ft | 369 kts | 266° |
| 2026-05-04 22:04 | -23.81809 | -45.81740 | 20850 ft | 369 kts | 266° |
| 2026-05-04 22:04 | -23.81949 | -45.84536 | 20497 ft | 369 kts | 266° |
| 2026-05-04 22:04 | -23.82085 | -45.87299 | 20146 ft | 369 kts | 266° |
| 2026-05-04 22:04 | -23.82223 | -45.90096 | 19793 ft | 369 kts | 266° |
| 2026-05-04 22:05 | -23.82361 | -45.92900 | 19442 ft | 369 kts | 266° |
| 2026-05-04 22:05 | -23.82499 | -45.95708 | 19073 ft | 369 kts | 266° |
| 2026-05-04 22:05 | -23.82635 | -45.98500 | 18717 ft | 368 kts | 266° |
| 2026-05-04 22:05 | -23.82771 | -46.01295 | 18346 ft | 368 kts | 266° |
| 2026-05-04 22:06 | -23.82906 | -46.04081 | 17953 ft | 366 kts | 266° |
| 2026-05-04 22:06 | -23.83039 | -46.06854 | 17583 ft | 364 kts | 266° |
| 2026-05-04 22:06 | -23.83171 | -46.09598 | 17226 ft | 359 kts | 266° |
| 2026-05-04 22:06 | -23.83301 | -46.12313 | 16876 ft | 356 kts | 266° |
| 2026-05-04 22:07 | -23.83428 | -46.14965 | 16538 ft | 353 kts | 266° |
| 2026-05-04 22:07 | -23.83554 | -46.17623 | 16202 ft | 348 kts | 266° |
| 2026-05-04 22:07 | -23.83678 | -46.20247 | 15867 ft | 345 kts | 266° |
| 2026-05-04 22:07 | -23.83802 | -46.22858 | 15541 ft | 342 kts | 266° |
| 2026-05-04 22:08 | -23.83926 | -46.25451 | 15217 ft | 340 kts | 266° |
| 2026-05-04 22:08 | -23.84048 | -46.28027 | 14893 ft | 339 kts | 266° |
| 2026-05-04 22:08 | -23.84169 | -46.30592 | 14570 ft | 338 kts | 266° |
| 2026-05-04 22:08 | -23.84290 | -46.33158 | 14239 ft | 337 kts | 266° |
| 2026-05-04 22:09 | -23.84411 | -46.35720 | 13910 ft | 337 kts | 266° |
| 2026-05-04 22:09 | -23.84530 | -46.38271 | 13575 ft | 336 kts | 266° |
| 2026-05-04 22:09 | -23.84649 | -46.40815 | 13228 ft | 335 kts | 266° |
| 2026-05-04 22:09 | -23.84767 | -46.43356 | 12893 ft | 333 kts | 266° |
| 2026-05-04 22:10 | -23.84884 | -46.45881 | 12566 ft | 332 kts | 266° |
| 2026-05-04 22:10 | -23.85000 | -46.48396 | 12245 ft | 331 kts | 266° |
| 2026-05-04 22:10 | -23.85113 | -46.50867 | 11932 ft | 330 kts | 266° |
| 2026-05-04 22:10 | -23.85228 | -46.53364 | 11617 ft | 327 kts | 266° |
| 2026-05-04 22:11 | -23.85340 | -46.55828 | 11304 ft | 322 kts | 266° |
| 2026-05-04 22:11 | -23.85450 | -46.58254 | 11002 ft | 317 kts | 266° |
| 2026-05-04 22:11 | -23.85370 | -46.60618 | 10673 ft | 308 kts | 283° |
| 2026-05-04 22:11 | -23.84507 | -46.62702 | 10407 ft | 297 kts | 302° |
| 2026-05-04 22:12 | -23.83633 | -46.63870 | 10215 ft | 292 kts | 314° |
| 2026-05-04 22:12 | -23.82065 | -46.65143 | 10085 ft | 280 kts | 324° |
| 2026-05-04 22:12 | -23.79857 | -46.66659 | 9607 ft | 277 kts | 326° |
| 2026-05-04 22:12 | -23.78774 | -46.67398 | 9404 ft | 276 kts | 325° |
| 2026-05-04 22:13 | -23.77158 | -46.68504 | 9265 ft | 272 kts | 325° |
| 2026-05-04 22:13 | -23.75542 | -46.69618 | 9244 ft | 276 kts | 325° |
| 2026-05-04 22:13 | -23.73921 | -46.70740 | 9237 ft | 273 kts | 325° |
| 2026-05-04 22:13 | -23.72328 | -46.71843 | 9221 ft | 270 kts | 325° |
| 2026-05-04 22:14 | -23.70725 | -46.72956 | 8973 ft | 277 kts | 325° |
| 2026-05-04 22:14 | -23.69095 | -46.74087 | 8651 ft | 278 kts | 325° |
| 2026-05-04 22:14 | -23.67448 | -46.75229 | 8181 ft | 278 kts | 325° |
| 2026-05-04 22:14 | -23.65838 | -46.76344 | 7844 ft | 270 kts | 325° |
| 2026-05-04 22:15 | -23.64280 | -46.77421 | 7574 ft | 259 kts | 325° |
| 2026-05-04 22:15 | -23.62815 | -46.78436 | 7271 ft | 246 kts | 325° |
| 2026-05-04 22:15 | -23.61397 | -46.79417 | 6993 ft | 237 kts | 326° |
| 2026-05-04 22:15 | -23.60020 | -46.80370 | 6742 ft | 230 kts | 326° |
| 2026-05-04 22:16 | -23.58700 | -46.81264 | 6490 ft | 218 kts | 331° |
| 2026-05-04 22:16 | -23.57245 | -46.81578 | 6237 ft | 214 kts | 5° |
| 2026-05-04 22:16 | -23.55865 | -46.81038 | 5971 ft | 210 kts | 30° |
| 2026-05-04 22:16 | -23.54835 | -46.79938 | 5732 ft | 207 kts | 53° |
| 2026-05-04 22:17 | -23.54072 | -46.78639 | 5535 ft | 201 kts | 55° |
| 2026-05-04 22:17 | -23.53332 | -46.77371 | 5331 ft | 195 kts | 54° |
| 2026-05-04 22:17 | -23.52611 | -46.76137 | 5116 ft | 189 kts | 54° |
| 2026-05-04 22:17 | -23.52102 | -46.74872 | 4904 ft | 179 kts | 81° |
| 2026-05-04 22:18 | -23.52216 | -46.73555 | 4736 ft | 175 kts | 108° |
| 2026-05-04 22:18 | -23.52875 | -46.72461 | 4524 ft | 173 kts | 137° |
| 2026-05-04 22:18 | -23.53833 | -46.71753 | 4404 ft | 168 kts | 147° |
| 2026-05-04 22:18 | -23.54800 | -46.71087 | 4249 ft | 157 kts | 146° |
| 2026-05-04 22:19 | -23.55706 | -46.70460 | 4033 ft | 150 kts | 146° |
| 2026-05-04 22:19 | -23.56574 | -46.69860 | 3843 ft | 146 kts | 146° |
| 2026-05-04 22:19 | -23.57430 | -46.69268 | 3702 ft | 145 kts | 146° |
| 2026-05-04 22:19 | -23.58286 | -46.68678 | 3517 ft | 145 kts | 146° |
| 2026-05-04 22:20 | -23.59123 | -46.68098 | 3309 ft | 143 kts | 147° |
| 2026-05-04 22:20 | -23.59981 | -46.67504 | 3130 ft | 144 kts | 147° |
| 2026-05-04 22:20 | -23.60819 | -46.66923 | 2919 ft | 145 kts | 147° |
| 2026-05-04 22:20 | -23.61669 | -46.66343 | 2718 ft | 143 kts | 147° |
| 2026-05-04 22:21 | -23.62478 | -46.65775 | 2604 ft | 130 kts | 147° |
| 2026-05-04 22:21 | -23.63058 | -46.65376 | 2609 ft | 46 kts | 147° |
| 2026-05-04 22:21 | -23.63257 | -46.65238 | 2608 ft | 22 kts | 147° |
| 2026-05-04 22:21 | -23.63367 | -46.65208 | 2605 ft | 14 kts | 192° |
| 2026-05-04 22:22 | -23.63410 | -46.65259 | 2601 ft | 9 kts | 279° |
| 2026-05-04 22:22 | -23.63366 | -46.65308 | 2601 ft | 9 kts | 330° |
| 2026-05-04 22:22 | -23.63310 | -46.65345 | 2601 ft | 9 kts | 328° |
| 2026-05-04 22:22 | -23.63257 | -46.65382 | 2601 ft | 9 kts | 327° |
| 2026-05-04 22:23 | -23.63202 | -46.65421 | 2601 ft | 10 kts | 327° |
| 2026-05-04 22:23 | -23.63146 | -46.65459 | 2601 ft | 9 kts | 327° |
| 2026-05-04 22:23 | -23.63087 | -46.65501 | 2601 ft | 10 kts | 328° |
| 2026-05-04 22:23 | -23.63019 | -46.65521 | 2602 ft | 10 kts | 352° |
| 2026-05-04 22:24 | -23.62957 | -46.65553 | 2602 ft | 10 kts | 326° |
| 2026-05-04 22:24 | -23.62896 | -46.65593 | 2602 ft | 11 kts | 329° |
| 2026-05-04 22:24 | -23.62825 | -46.65643 | 2602 ft | 14 kts | 324° |
| 2026-05-04 22:24 | -23.62744 | -46.65702 | 2601 ft | 14 kts | 328° |
| 2026-05-04 22:25 | -23.62664 | -46.65756 | 2601 ft | 13 kts | 327° |
| 2026-05-04 22:25 | -23.62592 | -46.65806 | 2601 ft | 12 kts | 327° |
| 2026-05-04 22:25 | -23.62563 | -46.65840 | 2600 ft | 4 kts | 264° |
| 2026-05-04 22:25 | -23.62579 | -46.65870 | 2600 ft | 4 kts | 238° |
| 2026-05-04 22:26 | -23.62592 | -46.65893 | 2600 ft | 2 kts | 237° |
| 2026-05-04 22:26 | -23.62597 | -46.65902 | 2600 ft | 1 kts | 237° |
| 2026-05-04 22:26 | -23.62598 | -46.65902 | 2600 ft | 1 kts | 237° |
| 2026-05-04 22:26 | -23.62598 | -46.65904 | 2600 ft | 0 kts | 237° |